This is the latest recevied weather packets stored in our database for station/object EA1JAO-11. If no packets are shown the sender has not sent any weather packets the latest 10 day(s).
| Time | Temp. | Humidity | Pressure | Rain* | Wind** | Luminosity | Snow |
|---|---|---|---|---|---|---|---|
| 1777451776 | 16.11° C | 77% | 1007.5 hPa | - | - | - | - |
| 1777449976 | 16.67° C | 77% | 1007.8 hPa | - | - | - | - |
| 1777448176 | 15.56° C | 80% | 1007.8 hPa | - | - | - | - |
| 1777446371 | 16.11° C | 78% | 1007.7 hPa | - | - | - | - |
| 1777444575 | 15.56° C | 80% | 1007.6 hPa | - | - | - | - |
| 1777442774 | 14.44° C | 84% | 1007.7 hPa | - | - | - | - |
| 1777440974 | 14.44° C | 85% | 1007.8 hPa | - | - | - | - |
| 1777439174 | 14.44° C | 85% | 1008 hPa | - | - | - | - |
| 1777437373 | 14.44° C | 86% | 1008.3 hPa | - | - | - | - |
| 1777435573 | 14.44° C | 82% | 1008.4 hPa | - | - | - | - |
| 1777433773 | 15° C | 81% | 1008.7 hPa | - | - | - | - |
| 1777431973 | 14.44° C | 81% | 1008.7 hPa | - | - | - | - |
| 1777430173 | 14.44° C | 82% | 1009 hPa | - | - | - | - |
| 1777428373 | 14.44° C | 82% | 1009.4 hPa | - | - | - | - |
| 1777426573 | 14.44° C | 84% | 1009.7 hPa | - | - | - | - |
| 1777424773 | 15° C | 83% | 1010 hPa | - | - | - | - |
| 1777422975 | 14.44° C | 84% | 1010.3 hPa | - | - | - | - |
| 1777421173 | 15° C | 85% | 1010.7 hPa | - | - | - | - |
| 1777419373 | 15° C | 83% | 1010.8 hPa | - | - | - | - |
| 1777417573 | 15.56° C | 82% | 1011.1 hPa | - | - | - | - |
| 1777415773 | 15° C | 83% | 1011.1 hPa | - | - | - | - |
| 1777413973 | 15.56° C | 83% | 1011.3 hPa | - | - | - | - |
| 1777412173 | 15.56° C | 82% | 1011.5 hPa | - | - | - | - |
| 1777410373 | 15.56° C | 85% | 1011.7 hPa | - | - | - | - |
| 1777408573 | 16.11° C | 84% | 1011.5 hPa | - | - | - | - |
* Rain since midnight (hover to see other rain measurements)
** Current wind speed in m/s (hover to see current wind gust speed)